Virgie Cenac — WDC2765 — position and weather

sailwx.info

Track history (hours):
 
Tides and Currents Weather Stations Pressure Air Temp Water Temp Dewpoint Dewpoint Depression Visibility Wind Speed Wind Dir Waves Ship Positions

Virgie Cenac

Owner: Cenac Marine Transportation, Inc., Houma, LA. More information available from US FCC via Universal Licensing System and Coast Guard Vessel Documentation Center.

Last reported at 2014-Nov-14 23:09 UTC. Time now 2014-Nov-28 22:56 UTC.
Position N 29°35' W 090°36'.
Warning: this ship's position is 13 days out of date.

Length 18 m; draft 3 m.

Type: Towing. MMSI: 366997430.

Date/timePositionNaut miles runAvg speedWind from/ knotsBaromVisibWave heightAir tempDewpointWater temp
2014-Nov-14 23:09N 29°35' W 090°36'  
2014-Nov-12 17:30N 29°34' W 090°32'4 1.0
2014-Nov-12 13:26N 29°35' W 090°36'1 0.0
2014-Nov-10 23:15N 29°35' W 090°35'7 0.8
2014-Nov-10 14:30N 29°33' W 090°27'7 7.4
2014-Nov-10 13:29N 29°35' W 090°35'2 0.5
2014-Nov-10 10:25N 29°35' W 090°37'20 2.2
2014-Nov-10 01:15N 29°37' W 091°00'6 8.1
2014-Nov-10 00:33N 29°39' W 091°06'1 0.8
2014-Nov-09 23:33N 29°40' W 091°06'0 0.0
2014-Nov-09 22:33N 29°40' W 091°06'3 2.9
2014-Nov-09 21:32N 29°37' W 091°04'0 0.4
2014-Nov-09 20:22N 29°37' W 091°03'3 4.0
2014-Nov-09 19:33N 29°37' W 091°07'4 3.9
2014-Nov-09 18:33N 29°36' W 091°11'5 3.4
2014-Nov-09 17:14N 29°32' W 091°15'2 2.6
2014-Nov-09 16:33N 29°31' W 091°16'4 0.4
2014-Nov-09 05:14N 29°27' W 091°17'0 0.0
2014-Nov-09 04:33N 29°27' W 091°17'0 0.0
2014-Nov-09 03:33N 29°27' W 091°17'0 0.0
2014-Nov-09 02:14N 29°27' W 091°17'1 0.4
2014-Nov-08 23:33N 29°27' W 091°18'1 0.0
2014-Nov-07 12:17N 29°26' W 091°20'0 0.2
2014-Nov-07 11:32N 29°26' W 091°19'0 0.0
2014-Nov-07 10:04N 29°26' W 091°19'0 0.0
2014-Nov-07 09:29N 29°26' W 091°19'0 0.0
2014-Nov-07 08:31N 29°26' W 091°19'0 0.0
2014-Nov-07 07:33N 29°26' W 091°19'0 0.0
2014-Nov-07 06:28N 29°26' W 091°19'4 4.5
2014-Nov-07 05:33N 29°29' W 091°16'8 7.6
2014-Nov-07 04:33N 29°36' W 091°11'5 5.3
2014-Nov-07 03:33N 29°39' W 091°06'  
Track history (hours):
 
Tides and Currents Weather Stations Pressure Air Temp Water Temp Dewpoint Dewpoint Depression Visibility Wind Speed Wind Dir Waves Ship Positions

Virgie Cenac

Owner: Cenac Marine Transportation, Inc., Houma, LA. More information available from US FCC via Universal Licensing System and Coast Guard Vessel Documentation Center.

Last reported at 2014-Nov-14 23:09 UTC. Time now 2014-Nov-28 22:56 UTC.
Position N 29°35' W 090°36'.
Warning: this ship's position is 13 days out of date.

Length 18 m; draft 3 m.

Type: Towing. MMSI: 366997430.

Date/timePositionNaut miles runAvg speedWind from/ knotsBaromVisibWave heightAir tempDewpointWater temp
2014-Nov-14 23:09N 29°35' W 090°36'  
2014-Nov-12 17:30N 29°34' W 090°32'4 1.0
2014-Nov-12 13:26N 29°35' W 090°36'1 0.0
2014-Nov-10 23:15N 29°35' W 090°35'7 0.8
2014-Nov-10 14:30N 29°33' W 090°27'7 7.4
2014-Nov-10 13:29N 29°35' W 090°35'2 0.5
2014-Nov-10 10:25N 29°35' W 090°37'20 2.2
2014-Nov-10 01:15N 29°37' W 091°00'6 8.1
2014-Nov-10 00:33N 29°39' W 091°06'1 0.8
2014-Nov-09 23:33N 29°40' W 091°06'0 0.0
2014-Nov-09 22:33N 29°40' W 091°06'3 2.9
2014-Nov-09 21:32N 29°37' W 091°04'0 0.4
2014-Nov-09 20:22N 29°37' W 091°03'3 4.0
2014-Nov-09 19:33N 29°37' W 091°07'4 3.9
2014-Nov-09 18:33N 29°36' W 091°11'5 3.4
2014-Nov-09 17:14N 29°32' W 091°15'2 2.6
2014-Nov-09 16:33N 29°31' W 091°16'4 0.4
2014-Nov-09 05:14N 29°27' W 091°17'0 0.0
2014-Nov-09 04:33N 29°27' W 091°17'0 0.0
2014-Nov-09 03:33N 29°27' W 091°17'0 0.0
2014-Nov-09 02:14N 29°27' W 091°17'1 0.4
2014-Nov-08 23:33N 29°27' W 091°18'1 0.0
2014-Nov-07 12:17N 29°26' W 091°20'0 0.2
2014-Nov-07 11:32N 29°26' W 091°19'0 0.0
2014-Nov-07 10:04N 29°26' W 091°19'0 0.0
2014-Nov-07 09:29N 29°26' W 091°19'0 0.0
2014-Nov-07 08:31N 29°26' W 091°19'0 0.0
2014-Nov-07 07:33N 29°26' W 091°19'0 0.0
2014-Nov-07 06:28N 29°26' W 091°19'4 4.5
2014-Nov-07 05:33N 29°29' W 091°16'8 7.6
2014-Nov-07 04:33N 29°36' W 091°11'5 5.3
2014-Nov-07 03:33N 29°39' W 091°06'  

Dump ship's entire track history